Terminal Aerodrome Forecast
Issued by NWS

Home | Current Version | Previous Version | Text Only | Print | Product List | Glossary Off
Versions: 1 2 3 4 5 6 7 8 9 10 11 12 13 14 15 16 17 18 19 20

000
FTUS43 KIWX 211700
TAFSBN
TAF
KSBN 211729Z 2118/2218 20008KT P6SM SCT010 BKN100
      TEMPO 2118/2119 BKN009
     FM212000 22010KT P6SM VCTS SCT025CB BKN035
      TEMPO 2120/2123 5SM -TSRA BKN025CB
     FM220300 20006KT 4SM -TSRA BR BKN025CB
     FM220700 20005KT 5SM -SHRA BR VCTS SCT025CB BKN035
     FM221200 23006KT P6SM VCSH BKN025=

USA.gov is the U.S. government's official web portal to all federal, state and local government web resources and services.